createdAt,value
2023-04-12T00:00:32.929Z,31
2023-04-12T00:15:32.407Z,31
2023-04-12T00:30:32.488Z,31
2023-04-12T00:45:32.943Z,31
2023-04-12T01:00:33.175Z,31
2023-04-12T01:15:32.203Z,31
2023-04-12T01:30:32.678Z,31
2023-04-12T01:45:32.415Z,31
2023-04-12T02:00:32.165Z,31
2023-04-12T02:15:32.449Z,31
2023-04-12T02:30:32.566Z,32
2023-04-12T02:45:32.547Z,32
2023-04-12T03:00:32.956Z,32
2023-04-12T03:15:33.066Z,32
2023-04-12T03:30:33.135Z,32
2023-04-12T03:45:32.633Z,32
2023-04-12T04:00:32.678Z,32
2023-04-12T04:15:32.020Z,32
2023-04-12T04:30:32.851Z,32
2023-04-12T04:45:32.564Z,32
2023-04-12T05:00:33.546Z,32
2023-04-12T05:15:32.525Z,33
2023-04-12T05:30:33.623Z,33
2023-04-12T05:45:32.639Z,33
2023-04-12T06:00:32.725Z,33
2023-04-12T06:15:32.344Z,33
2023-04-12T06:30:33.807Z,33
2023-04-12T06:45:33.353Z,33
2023-04-12T07:00:34.228Z,33
2023-04-12T07:15:32.878Z,33
2023-04-12T07:30:33.649Z,34
2023-04-12T07:45:32.658Z,34
2023-04-12T08:00:33.919Z,34
2023-04-12T08:15:33.092Z,34
2023-04-12T08:30:32.538Z,35
2023-04-12T08:45:32.636Z,35
2023-04-12T09:00:33.624Z,35
2023-04-12T09:15:32.017Z,35
2023-04-12T09:30:34.049Z,35
2023-04-12T09:45:32.552Z,36
2023-04-12T10:00:33.710Z,36
2023-04-12T10:15:32.963Z,36
2023-04-12T10:30:33.076Z,37
2023-04-12T10:45:33.543Z,37
2023-04-12T11:00:32.793Z,37
2023-04-12T11:15:32.718Z,37
2023-04-12T11:30:34.285Z,38
2023-04-12T11:45:32.715Z,38
2023-04-12T12:00:34.310Z,38
2023-04-12T12:15:32.889Z,38
2023-04-12T12:30:34.356Z,38
2023-04-12T12:45:32.855Z,38
2023-04-12T13:00:34.141Z,38
2023-04-12T13:15:32.365Z,38
2023-04-12T13:30:34.068Z,38
2023-04-12T13:45:34.535Z,38
2023-04-12T14:00:33.745Z,38
2023-04-12T14:15:33.395Z,38
2023-04-12T14:30:33.488Z,38
2023-04-12T14:45:32.694Z,38
2023-04-12T15:00:33.698Z,37
2023-04-12T15:15:32.709Z,37
2023-04-12T15:30:33.644Z,37
2023-04-12T15:45:32.642Z,37
2023-04-12T16:00:34.072Z,37
2023-04-12T16:15:32.478Z,37
2023-04-12T16:30:33.391Z,37
2023-04-12T16:45:32.818Z,37
2023-04-12T17:00:33.759Z,37
2023-04-12T17:15:34.826Z,37
2023-04-12T17:30:34.571Z,37
2023-04-12T17:45:32.963Z,37
2023-04-12T18:00:35.048Z,37
2023-04-12T18:15:33.550Z,37
2023-04-12T18:30:32.996Z,38
2023-04-12T18:45:33.058Z,38
2023-04-12T19:00:34.710Z,39
2023-04-12T19:15:32.976Z,39
2023-04-12T19:30:34.461Z,40
2023-04-12T19:45:32.492Z,40
2023-04-12T20:00:34.030Z,40
2023-04-12T20:15:33.018Z,40
2023-04-12T20:30:33.535Z,40
2023-04-12T20:45:32.342Z,40
2023-04-12T21:00:33.671Z,40
2023-04-12T21:15:32.648Z,40
2023-04-12T21:30:33.396Z,40
2023-04-12T21:45:33.211Z,40
2023-04-12T22:00:34.082Z,40
2023-04-12T22:15:32.346Z,40
2023-04-12T22:30:32.248Z,40
2023-04-12T22:45:32.914Z,40
2023-04-12T23:00:33.414Z,40
2023-04-12T23:15:32.903Z,40
2023-04-12T23:30:32.478Z,40
2023-04-12T23:45:32.626Z,40
